Time;durP1;ratioP1;P1;durP2;ratioP2;P2;SDS_P1;SDS_P2;PMS_P1;PMS_P2;Temp;Humidity;BMP_temperature;BMP_pressure;BME280_temperature;BME280_humidity;BME280_pressure;Samples;Min_cycle;Max_cycle;Signal;HPM_P1;HPM_P2
2021/09/09 00:00:46;;;;;;;33.45;21.55;;;;;;;18.81;71.10;101040.91;5033107;28;20112;-40
2021/09/09 00:03:12;;;;;;;32.25;21.75;;;;;;;18.77;71.29;101041.59;5035061;28;20033;-41
2021/09/09 00:05:37;;;;;;;32.70;22.20;;;;;;;18.71;71.47;101042.50;5041546;28;20137;-41
2021/09/09 00:08:03;;;;;;;30.83;21.35;;;;;;;18.69;71.59;101044.63;5033710;28;20053;-41
2021/09/09 00:10:28;;;;;;;32.78;21.08;;;;;;;18.67;71.60;101041.28;5033571;28;20053;-41
2021/09/09 00:12:54;;;;;;;29.60;22.15;;;;;;;18.66;71.57;101043.19;5034921;28;20026;-40
2021/09/09 00:15:19;;;;;;;30.85;22.02;;;;;;;18.62;72.00;101037.38;5035143;28;20030;-40
2021/09/09 00:17:44;;;;;;;31.58;22.20;;;;;;;18.63;71.56;101032.75;5034552;28;20029;-41
2021/09/09 00:20:11;;;;;;;31.10;21.75;;;;;;;18.62;71.99;101034.66;5045401;28;20477;-41
2021/09/09 00:22:36;;;;;;;31.05;20.60;;;;;;;18.62;71.76;101022.91;5054633;28;20025;-40
2021/09/09 00:25:02;;;;;;;31.63;21.02;;;;;;;18.60;71.81;101027.75;5046652;28;20098;-40
2021/09/09 00:27:28;;;;;;;34.53;21.35;;;;;;;18.57;71.80;101020.88;5054697;28;20021;-40
2021/09/09 00:29:53;;;;;;;30.48;22.10;;;;;;;18.56;71.51;101032.84;5053186;28;20017;-42
2021/09/09 00:32:18;;;;;;;34.50;21.83;;;;;;;18.54;71.58;101026.78;5054655;28;20033;-41
2021/09/09 00:34:44;;;;;;;33.15;21.60;;;;;;;18.54;71.57;101021.34;5047267;28;20070;-41
2021/09/09 00:37:09;;;;;;;29.33;21.17;;;;;;;18.53;71.50;101022.38;5018450;28;20060;-41
2021/09/09 00:39:34;;;;;;;31.88;22.27;;;;;;;18.54;71.38;101015.91;5019081;28;20033;-42
2021/09/09 00:42:00;;;;;;;29.30;19.30;;;;;;;18.60;70.82;101006.78;5014887;28;20060;-42
2021/09/09 00:44:27;;;;;;;30.48;20.55;;;;;;;18.62;70.88;101012.00;5017227;28;20514;-40
2021/09/09 00:46:58;;;;;;;31.38;20.65;;;;;;;18.54;70.82;101005.00;5054203;28;20029;-41
2021/09/09 00:49:24;;;;;;;32.95;20.67;;;;;;;18.53;71.05;101007.94;5033597;28;20125;-41
2021/09/09 00:51:49;;;;;;;30.70;18.80;;;;;;;18.58;70.62;101014.34;5014239;28;20118;-41
2021/09/09 00:54:14;;;;;;;29.95;18.55;;;;;;;18.66;70.28;101005.03;5017239;28;20044;-41
2021/09/09 00:56:40;;;;;;;29.92;20.60;;;;;;;18.71;70.22;100998.88;5049870;28;20021;-40
2021/09/09 00:59:05;;;;;;;34.30;21.90;;;;;;;18.71;69.75;100996.16;5034770;28;20026;-41
2021/09/09 01:01:30;;;;;;;26.48;19.25;;;;;;;18.70;69.77;100987.16;5033856;28;20025;-40
2021/09/09 01:03:56;;;;;;;33.63;20.90;;;;;;;18.67;69.87;100984.03;5034310;28;20053;-40
2021/09/09 01:06:21;;;;;;;29.48;19.30;;;;;;;18.61;70.34;100985.81;5049648;28;20041;-41
2021/09/09 01:08:46;;;;;;;32.25;19.70;;;;;;;18.59;70.33;100991.50;5042499;28;20058;-41
2021/09/09 01:11:12;;;;;;;34.13;20.45;;;;;;;18.61;70.25;100985.81;5033877;28;20032;-40
2021/09/09 01:13:37;;;;;;;29.20;19.40;;;;;;;18.59;70.47;100977.88;5031977;28;20508;-40
2021/09/09 01:16:04;;;;;;;30.80;20.88;;;;;;;18.59;70.27;100982.50;5048308;28;20112;-40
2021/09/09 01:18:29;;;;;;;30.00;20.33;;;;;;;18.61;70.06;100981.19;5054126;28;20029;-41
2021/09/09 01:20:54;;;;;;;33.03;21.17;;;;;;;18.56;70.06;100978.34;5053619;28;20531;-40
2021/09/09 01:23:20;;;;;;;27.15;19.38;;;;;;;18.56;70.07;100966.59;5044674;28;20057;-41
2021/09/09 01:25:45;;;;;;;33.00;19.67;;;;;;;18.55;70.05;100962.22;5043555;28;20040;-39
2021/09/09 01:28:11;;;;;;;32.33;20.92;;;;;;;18.57;69.85;100968.25;5053768;28;20049;-41
2021/09/09 01:30:37;;;;;;;29.27;20.83;;;;;;;18.46;69.96;100972.63;5053289;28;20057;-41
2021/09/09 01:33:02;;;;;;;27.77;19.63;;;;;;;18.47;70.05;100966.09;5042527;28;20033;-41
2021/09/09 01:35:28;;;;;;;32.10;20.98;;;;;;;18.45;70.14;100965.47;5033498;28;20094;-40
2021/09/09 01:37:53;;;;;;;35.67;21.63;;;;;;;18.39;70.51;100960.97;5034588;28;20112;-40
2021/09/09 01:40:27;;;;;;;36.03;21.98;;;;;;;18.34;70.87;100967.09;5012151;28;20611;-41
2021/09/09 01:42:52;;;;;;;32.00;22.00;;;;;;;18.28;71.00;100965.31;5013460;28;20025;-40
2021/09/09 01:45:17;;;;;;;34.83;22.27;;;;;;;18.19;71.06;100967.53;5038572;28;20039;-40
2021/09/09 01:47:43;;;;;;;35.67;22.30;;;;;;;18.15;71.25;100971.75;5044670;28;20318;-41
2021/09/09 01:50:08;;;;;;;33.20;22.83;;;;;;;18.11;71.40;100975.97;5032478;28;20594;-40
2021/09/09 01:52:33;;;;;;;34.10;23.10;;;;;;;18.06;71.51;100973.13;5029167;28;20470;-40
2021/09/09 01:54:59;;;;;;;29.85;20.67;;;;;;;18.02;71.85;100971.91;5020261;28;20036;-40
2021/09/09 01:57:24;;;;;;;35.42;23.65;;;;;;;18.01;71.60;100969.41;5051791;28;20055;-40
2021/09/09 01:59:49;;;;;;;29.88;21.35;;;;;;;18.03;71.70;100968.13;5053328;28;20484;-40
2021/09/09 02:02:15;;;;;;;33.38;24.10;;;;;;;17.98;71.91;100963.38;5044749;28;20033;-40
2021/09/09 02:04:40;;;;;;;36.47;24.02;;;;;;;17.91;72.16;100959.91;5026513;28;20156;-41
2021/09/09 02:07:05;;;;;;;40.75;24.70;;;;;;;17.90;72.16;100957.38;5045484;28;20141;-41
2021/09/09 02:09:31;;;;;;;33.75;22.45;;;;;;;17.86;72.19;100956.19;5012850;28;20042;-40
2021/09/09 02:11:56;;;;;;;34.55;23.80;;;;;;;17.77;72.61;100961.91;5012836;28;20421;-41
2021/09/09 02:14:21;;;;;;;33.40;21.10;;;;;;;17.74;72.52;100947.91;5017183;28;20026;-40
2021/09/09 02:16:46;;;;;;;31.95;22.17;;;;;;;17.79;72.40;100950.81;5032860;28;20052;-41
2021/09/09 02:19:12;;;;;;;38.22;23.60;;;;;;;17.75;72.78;100958.59;5014173;28;20410;-40
2021/09/09 02:21:37;;;;;;;37.88;24.40;;;;;;;17.68;72.88;100963.25;5052411;28;20419;-41
2021/09/09 02:24:03;;;;;;;37.05;24.13;;;;;;;17.67;72.82;100953.44;5052853;28;20469;-41
2021/09/09 02:26:28;;;;;;;38.53;26.20;;;;;;;17.63;73.04;100963.09;5036037;28;20495;-41
2021/09/09 02:28:54;;;;;;;39.75;24.77;;;;;;;17.61;73.19;100959.78;5037199;28;20091;-41
2021/09/09 02:31:19;;;;;;;38.10;24.27;;;;;;;17.56;73.43;100962.34;5044420;28;20047;-40
2021/09/09 02:33:44;;;;;;;38.90;25.92;;;;;;;17.51;73.51;100959.47;5051957;28;20083;-41
2021/09/09 02:36:09;;;;;;;34.50;23.05;;;;;;;17.50;73.61;100964.06;5033810;28;20040;-41
2021/09/09 02:38:35;;;;;;;39.17;22.20;;;;;;;17.52;73.30;100961.13;5026860;28;20037;-40
2021/09/09 02:41:01;;;;;;;46.25;28.65;;;;;;;17.53;73.24;100951.91;5032763;28;20090;-40
2021/09/09 02:43:26;;;;;;;40.60;25.98;;;;;;;17.59;73.26;100952.88;5031124;28;20108;-41
2021/09/09 02:45:51;;;;;;;35.85;24.65;;;;;;;17.55;73.31;100949.78;5032477;28;20029;-40
2021/09/09 02:48:17;;;;;;;36.78;24.88;;;;;;;17.49;73.33;100942.53;5046684;28;20040;-40
2021/09/09 02:50:42;;;;;;;42.58;24.33;;;;;;;17.45;73.57;100944.88;5031115;28;20464;-41
2021/09/09 02:53:07;;;;;;;44.85;27.88;;;;;;;17.39;73.84;100939.50;5032043;28;20037;-41
2021/09/09 02:55:33;;;;;;;44.72;28.20;;;;;;;17.33;73.87;100936.63;5027518;28;20050;-41
2021/09/09 02:57:58;;;;;;;45.92;26.40;;;;;;;17.28;74.18;100949.25;5018159;28;20108;-41
2021/09/09 03:00:24;;;;;;;43.05;28.38;;;;;;;17.23;73.93;100940.91;5016770;28;20516;-40
2021/09/09 03:02:49;;;;;;;42.63;26.48;;;;;;;17.28;73.80;100935.63;5035345;28;20033;-41
2021/09/09 03:05:14;;;;;;;38.42;23.65;;;;;;;17.37;73.80;100936.16;5036641;28;20150;-40
2021/09/09 03:07:40;;;;;;;42.38;26.40;;;;;;;17.36;73.74;100937.25;5029599;28;20041;-40
2021/09/09 03:10:06;;;;;;;45.33;24.17;;;;;;;17.34;73.49;100935.56;5015875;28;20049;-39
2021/09/09 03:12:32;;;;;;;46.15;27.65;;;;;;;17.30;73.80;100931.63;5016360;28;20045;-39
2021/09/09 03:14:58;;;;;;;47.30;27.60;;;;;;;17.28;73.75;100920.13;5035162;28;20400;-41
2021/09/09 03:17:23;;;;;;;45.78;29.27;;;;;;;17.28;73.67;100925.59;5054156;28;20029;-40
2021/09/09 03:19:48;;;;;;;48.67;29.42;;;;;;;17.27;73.76;100921.22;5040982;28;20040;-41
2021/09/09 03:22:14;;;;;;;40.38;26.55;;;;;;;17.25;73.63;100917.88;5030429;28;20392;-41
2021/09/09 03:24:39;;;;;;;44.90;27.98;;;;;;;17.27;73.56;100915.78;5035125;28;20458;-41
2021/09/09 03:27:05;;;;;;;41.50;25.77;;;;;;;17.26;73.60;100911.38;5048951;28;20555;-40
2021/09/09 03:29:30;;;;;;;43.15;27.38;;;;;;;17.22;73.94;100912.88;5017647;28;20386;-41
2021/09/09 03:31:55;;;;;;;49.67;28.15;;;;;;;17.22;74.13;100917.47;5033300;28;20032;-41
2021/09/09 03:34:21;;;;;;;44.95;29.83;;;;;;;17.22;73.69;100923.78;5034257;28;20018;-40
2021/09/09 03:36:46;;;;;;;49.40;29.67;;;;;;;17.22;73.84;100923.78;5050782;28;20063;-41
2021/09/09 03:39:11;;;;;;;45.63;29.73;;;;;;;17.20;73.88;100930.50;5034980;28;20020;-41
2021/09/09 03:41:37;;;;;;;46.08;28.23;;;;;;;17.17;73.82;100928.19;5035300;28;20026;-42
2021/09/09 03:44:02;;;;;;;47.38;30.33;;;;;;;17.16;74.02;100929.25;5034114;28;20459;-41
2021/09/09 03:46:28;;;;;;;41.05;25.50;;;;;;;17.14;73.92;100928.63;5022834;28;20472;-40
2021/09/09 03:48:53;;;;;;;53.10;30.65;;;;;;;17.11;74.11;100924.47;5038327;28;20030;-41
2021/09/09 04:55:56;;;;;;;53.50;30.42;;;;;;;16.48;75.63;100851.19;5089608;27;20404;-40
2021/09/09 04:58:22;;;;;;;46.55;28.67;;;;;;;16.47;75.75;100855.78;5089404;28;20040;-40
2021/09/09 05:00:47;;;;;;;53.95;30.15;;;;;;;16.51;75.59;100850.72;5088913;28;20452;-40
2021/09/09 05:03:13;;;;;;;61.65;33.28;;;;;;;16.54;75.53;100850.31;5088443;28;20047;-40
2021/09/09 05:05:38;;;;;;;62.10;31.48;;;;;;;16.55;75.41;100852.78;5089254;28;20031;-40
2021/09/09 05:08:04;;;;;;;57.65;32.80;;;;;;;16.62;75.29;100852.75;5088311;28;20032;-40
2021/09/09 05:10:29;;;;;;;54.60;31.00;;;;;;;16.69;74.82;100856.22;5071089;28;20082;-39
2021/09/09 05:12:54;;;;;;;54.28;31.65;;;;;;;16.73;74.49;100852.03;5088308;28;20021;-40
2021/09/09 05:15:20;;;;;;;69.95;34.63;;;;;;;16.73;74.42;100860.16;5088148;28;20031;-40
2021/09/09 05:17:45;;;;;;;83.03;35.40;;;;;;;16.78;74.47;100862.25;5095681;28;20053;-40
2021/09/09 05:20:11;;;;;;;78.20;31.55;;;;;;;16.82;74.43;100858.84;5103274;28;20023;-40
2021/09/09 05:22:37;;;;;;;82.60;34.92;;;;;;;16.87;73.80;100866.34;5098842;28;20016;-39
2021/09/09 05:25:03;;;;;;;83.40;33.80;;;;;;;16.87;73.82;100871.78;5085115;28;20494;-39
2021/09/09 05:27:29;;;;;;;76.18;32.25;;;;;;;16.89;73.73;100862.34;5088976;28;20353;-40
2021/09/09 05:29:54;;;;;;;54.42;30.15;;;;;;;16.95;73.43;100873.38;5098699;28;20034;-40
2021/09/09 05:32:19;;;;;;;46.90;29.85;;;;;;;16.96;73.13;100872.34;5101830;28;20024;-40
2021/09/09 05:34:45;;;;;;;50.88;30.73;;;;;;;16.93;73.32;100867.34;5088118;28;20382;-40
2021/09/09 05:37:10;;;;;;;50.92;29.92;;;;;;;16.98;73.08;100860.19;5087768;28;20012;-40
2021/09/09 05:39:35;;;;;;;49.97;29.50;;;;;;;17.06;73.03;100859.91;5088201;28;20478;-40
2021/09/09 05:42:01;;;;;;;47.03;30.40;;;;;;;17.13;72.69;100845.41;5087736;28;20017;-40
2021/09/09 05:44:26;;;;;;;45.28;27.10;;;;;;;17.44;71.92;100839.81;5088291;28;20040;-40
2021/09/09 05:46:51;;;;;;;52.30;29.60;;;;;;;17.69;71.10;100841.59;5070357;28;20108;-41
2021/09/09 05:49:16;;;;;;;52.90;29.73;;;;;;;18.05;69.87;100848.06;5088168;28;20031;-41
2021/09/09 05:51:42;;;;;;;65.80;31.25;;;;;;;18.34;68.20;100851.84;5088054;28;20073;-40
2021/09/09 05:54:07;;;;;;;48.70;28.55;;;;;;;18.37;67.55;100849.47;5087254;28;20114;-41
2021/09/09 05:56:33;;;;;;;46.92;26.92;;;;;;;18.78;67.32;100855.16;5087633;28;20024;-40
2021/09/09 05:58:58;;;;;;;43.85;28.75;;;;;;;18.45;67.13;100861.09;5087295;28;20032;-40
2021/09/09 06:01:24;;;;;;;45.05;27.58;;;;;;;18.49;67.31;100856.84;5087375;28;20119;-41
2021/09/09 06:03:50;;;;;;;44.50;28.75;;;;;;;18.43;67.42;100859.44;5088184;28;20115;-41
2021/09/09 06:06:16;;;;;;;48.80;29.70;;;;;;;18.43;67.56;100859.44;5079798;28;20079;-40
2021/09/09 06:08:43;;;;;;;42.67;29.13;;;;;;;18.53;67.35;100847.94;5075574;28;20451;-40
2021/09/09 06:11:09;;;;;;;45.05;28.98;;;;;;;18.34;67.43;100854.56;5076995;28;20070;-40
2021/09/09 06:13:34;;;;;;;39.58;26.50;;;;;;;18.56;67.23;100847.50;5040931;28;20048;-40
2021/09/09 06:15:59;;;;;;;49.55;28.42;;;;;;;18.45;68.04;100848.28;5073527;28;20071;-40
2021/09/09 06:18:25;;;;;;;45.72;28.45;;;;;;;18.38;68.17;100855.75;5073501;28;20445;-40
2021/09/09 06:20:50;;;;;;;45.00;29.10;;;;;;;18.19;68.23;100853.09;5073687;28;20086;-40
2021/09/09 06:23:15;;;;;;;51.67;30.58;;;;;;;18.20;68.52;100853.94;5073430;28;20020;-40
2021/09/09 06:25:40;;;;;;;47.70;29.83;;;;;;;18.23;68.67;100861.63;5073331;28;20024;-40
2021/09/09 06:28:06;;;;;;;45.00;28.75;;;;;;;18.25;68.13;100855.97;5055685;28;20543;-39
2021/09/09 06:30:31;;;;;;;41.03;26.35;;;;;;;18.49;67.92;100854.13;5055708;28;20044;-40
2021/09/09 06:32:56;;;;;;;39.50;26.75;;;;;;;18.42;67.25;100851.50;5073398;28;20071;-39
2021/09/09 06:35:22;;;;;;;39.10;26.33;;;;;;;18.55;67.29;100851.28;5073178;28;20047;-39
2021/09/09 06:37:48;;;;;;;47.70;29.27;;;;;;;18.45;67.54;100855.66;5070461;28;20059;-40
2021/09/09 06:40:13;;;;;;;40.70;26.42;;;;;;;18.54;67.02;100855.09;5078752;28;20115;-40
2021/09/09 06:42:39;;;;;;;42.00;28.15;;;;;;;18.56;67.09;100869.31;5072739;28;20021;-40
2021/09/09 06:45:06;;;;;;;43.72;27.48;;;;;;;18.96;66.89;100868.66;5073098;28;20032;-41
2021/09/09 06:47:31;;;;;;;40.15;27.00;;;;;;;19.52;65.36;100899.94;5072423;28;20081;-40
2021/09/09 06:49:57;;;;;;;45.33;27.90;;;;;;;19.83;64.07;100917.00;5072875;28;20119;-41
2021/09/09 06:52:22;;;;;;;43.60;26.20;;;;;;;20.55;61.45;100905.56;5072024;28;20037;-40
2021/09/09 06:54:47;;;;;;;39.97;25.95;;;;;;;20.91;60.67;100897.13;5072806;28;20049;-40
2021/09/09 06:57:12;;;;;;;40.45;25.23;;;;;;;21.03;59.59;100892.38;5073147;28;20461;-40
2021/09/09 06:59:38;;;;;;;42.97;24.95;;;;;;;21.49;58.89;100890.34;5073101;28;20441;-40
2021/09/09 07:02:03;;;;;;;38.85;24.15;;;;;;;22.08;56.91;100892.41;5073276;28;20039;-40
2021/09/09 07:04:29;;;;;;;41.40;23.60;;;;;;;22.30;55.74;100895.13;5072637;28;20059;-39
2021/09/09 07:06:54;;;;;;;36.35;23.55;;;;;;;22.25;55.90;100898.69;5073283;28;20365;-41
2021/09/09 07:09:19;;;;;;;29.98;21.33;;;;;;;23.25;53.68;100895.41;5073322;28;20399;-40
2021/09/09 07:11:44;;;;;;;33.50;20.88;;;;;;;23.42;53.08;100895.22;5073185;28;20484;-41
2021/09/09 07:14:10;;;;;;;33.65;22.10;;;;;;;23.61;51.65;100893.66;5082432;28;20086;-42
2021/09/09 07:16:35;;;;;;;29.05;20.20;;;;;;;24.07;50.78;100887.56;5093362;28;20395;-41
2021/09/09 07:19:01;;;;;;;34.90;20.83;;;;;;;24.02;50.86;100884.78;5092478;28;20352;-39
2021/09/09 07:21:26;;;;;;;32.88;20.83;;;;;;;23.46;51.81;100879.88;5078128;28;20086;-40
2021/09/09 07:23:51;;;;;;;31.73;19.45;;;;;;;24.34;49.50;100878.25;5072687;28;20043;-40
2021/09/09 07:26:17;;;;;;;27.38;19.70;;;;;;;24.90;48.66;100864.50;5072990;28;20039;-41
2021/09/09 07:28:42;;;;;;;29.25;18.70;;;;;;;24.69;48.65;100861.78;5086560;28;20467;-40
2021/09/09 07:31:08;;;;;;;31.52;18.35;;;;;;;24.96;48.81;100861.50;5081226;28;20032;-40
2021/09/09 07:33:33;;;;;;;34.05;20.02;;;;;;;25.52;47.55;100871.56;5072430;28;20028;-41
2021/09/09 07:35:58;;;;;;;28.25;18.75;;;;;;;25.38;46.99;100870.50;5072630;28;20033;-41
2021/09/09 07:38:24;;;;;;;26.63;18.65;;;;;;;25.53;47.42;100872.38;5072969;28;20032;-42
2021/09/09 07:40:49;;;;;;;27.55;18.98;;;;;;;25.26;47.81;100886.53;5071639;28;20068;-41
2021/09/09 07:43:14;;;;;;;33.80;18.75;;;;;;;24.03;50.55;100878.19;5072366;28;20048;-40
2021/09/09 07:45:40;;;;;;;32.15;18.67;;;;;;;23.62;51.79;100886.28;5083115;28;20138;-40
2021/09/09 07:48:06;;;;;;;33.97;19.35;;;;;;;23.85;52.69;100872.06;5072325;28;20063;-40
2021/09/09 07:50:31;;;;;;;33.67;18.20;;;;;;;23.94;51.24;100885.31;5071860;28;20407;-40
2021/09/09 07:52:57;;;;;;;35.30;17.65;;;;;;;23.65;52.10;100889.28;5072265;28;20123;-41
2021/09/09 07:55:23;;;;;;;34.00;18.55;;;;;;;24.31;50.66;100885.13;5071949;28;20079;-41
2021/09/09 07:57:49;;;;;;;40.63;18.30;;;;;;;24.30;50.65;100903.56;5072266;28;20491;-40
2021/09/09 08:00:15;;;;;;;29.17;16.70;;;;;;;24.99;49.71;100898.66;5072240;28;20111;-40
2021/09/09 08:02:40;;;;;;;31.92;19.17;;;;;;;25.62;47.96;100904.59;5072338;28;20077;-41
2021/09/09 08:05:06;;;;;;;28.10;17.95;;;;;;;25.80;48.11;100903.16;5072653;28;20024;-42
2021/09/09 08:07:38;;;;;;;33.17;19.95;;;;;;;24.97;49.18;100898.09;5072509;28;20064;-41
2021/09/09 08:10:03;;;;;;;32.88;21.10;;;;;;;23.98;51.99;100900.16;5054429;28;20025;-40
2021/09/09 08:12:29;;;;;;;35.03;21.88;;;;;;;23.55;53.14;100899.41;5071133;28;20040;-42
2021/09/09 08:14:54;;;;;;;38.40;20.00;;;;;;;23.71;54.33;100909.38;5072427;28;20036;-42
2021/09/09 08:17:19;;;;;;;33.42;21.35;;;;;;;23.19;54.66;100905.50;5072116;28;20073;-41
2021/09/09 08:19:45;;;;;;;33.70;20.48;;;;;;;23.06;55.24;100911.47;5071955;28;20073;-40
2021/09/09 08:22:10;;;;;;;34.53;20.67;;;;;;;22.96;55.76;100914.97;5072148;28;20036;-40
2021/09/09 08:24:35;;;;;;;34.28;21.90;;;;;;;22.81;55.75;100906.59;5071319;28;20079;-41
2021/09/09 08:27:01;;;;;;;34.28;21.17;;;;;;;22.96;55.94;100909.50;5071629;28;20032;-40
2021/09/09 08:29:26;;;;;;;33.05;21.83;;;;;;;22.62;56.93;100903.41;5053904;28;20024;-41
2021/09/09 08:31:51;;;;;;;36.78;21.17;;;;;;;22.91;57.10;100901.19;5071958;28;20029;-41
2021/09/09 08:34:17;;;;;;;26.05;20.65;;;;;;;22.83;56.35;100898.94;5071579;28;20032;-41
2021/09/09 08:36:42;;;;;;;38.88;21.38;;;;;;;23.11;56.65;100894.22;5053887;28;20078;-41
2021/09/09 08:39:07;;;;;;;30.30;20.08;;;;;;;23.49;55.56;100900.50;5071905;28;20033;-41
2021/09/09 08:41:33;;;;;;;35.42;21.70;;;;;;;23.86;53.87;100914.97;5072057;28;20035;-40
2021/09/09 08:43:58;;;;;;;34.33;22.42;;;;;;;24.44;52.10;100911.28;5071183;28;20051;-41
2021/09/09 08:46:24;;;;;;;34.95;19.48;;;;;;;25.47;51.02;100907.41;5071913;28;20020;-40
2021/09/09 08:48:49;;;;;;;33.40;18.75;;;;;;;26.93;47.43;100900.47;5071396;28;20463;-41
2021/09/09 08:51:16;;;;;;;32.97;20.08;;;;;;;27.69;45.24;100919.34;5072187;28;20058;-41
2021/09/09 08:53:42;;;;;;;;;;;;;;;26.73;46.38;100917.25;5053564;28;20021;-42
2021/09/09 08:56:07;;;;;;;36.50;21.23;;;;;;;25.93;48.91;100917.44;5071732;28;20003;-42
2021/09/09 08:58:34;;;;;;;32.50;21.02;;;;;;;26.95;47.00;100924.25;5053930;28;20115;-41
2021/09/09 09:01:07;;;;;;;28.65;19.67;;;;;;;26.87;47.86;100917.41;5070632;28;20043;-41
2021/09/09 09:03:55;;;;;;;28.38;20.58;;;;;;;27.25;47.50;100918.47;5052677;28;20472;-41
2021/09/09 09:06:24;;;;;;;29.73;21.20;;;;;;;26.75;48.00;100917.75;5072320;28;20024;-40
2021/09/09 09:08:52;;;;;;;31.40;21.48;;;;;;;26.82;47.78;100922.97;5071820;28;20025;-41
2021/09/09 09:11:22;;;;;;;31.40;21.55;;;;;;;27.11;47.34;100925.75;5071779;28;20036;-42
2021/09/09 09:13:47;;;;;;;33.95;21.25;;;;;;;27.63;46.21;100929.66;5070905;28;20032;-41
2021/09/09 09:16:16;;;;;;;33.22;21.73;;;;;;;27.37;47.26;100920.81;5071653;28;20029;-40
2021/09/09 09:18:42;;;;;;;33.30;21.35;;;;;;;27.10;48.49;100924.09;5071783;28;20389;-41
2021/09/09 09:21:08;;;;;;;29.10;20.35;;;;;;;27.95;46.26;100925.41;5071153;28;20029;-41
2021/09/09 09:23:34;;;;;;;36.95;22.45;;;;;;;27.93;46.60;100922.13;5071122;28;20530;-41
2021/09/09 09:26:03;;;;;;;28.15;21.38;;;;;;;28.17;46.41;100917.38;5071597;28;20029;-40
2021/09/09 09:28:42;;;;;;;35.22;21.13;;;;;;;27.70;47.77;100930.13;5071610;28;20032;-40
2021/09/09 09:31:15;;;;;;;33.53;21.60;;;;;;;27.66;47.67;100934.59;5071295;28;20560;-41
2021/09/09 09:33:46;;;;;;;35.30;22.33;;;;;;;27.52;48.41;100922.59;5071548;28;20174;-41
2021/09/09 09:36:21;;;;;;;32.83;20.98;;;;;;;27.34;48.78;100932.47;5071553;28;20056;-41
2021/09/09 09:38:48;;;;;;;35.25;21.33;;;;;;;27.22;49.50;100932.84;5071267;28;20028;-42
2021/09/09 09:41:17;;;;;;;28.70;18.63;;;;;;;27.68;48.49;100932.34;5072824;28;20035;-42
2021/09/09 09:43:57;;;;;;;29.90;19.23;;;;;;;27.49;49.14;100926.78;5074740;28;20028;-41
2021/09/09 09:46:42;;;;;;;34.53;20.73;;;;;;;26.77;51.29;100923.00;5040424;28;20068;-42
2021/09/09 09:49:25;;;;;;;32.95;19.17;;;;;;;26.77;51.21;100923.84;5073717;28;20094;-42
2021/09/09 09:51:55;;;;;;;33.50;18.45;;;;;;;26.93;52.01;100925.34;5075474;28;20047;-41
2021/09/09 09:54:21;;;;;;;31.20;21.25;;;;;;;26.36;53.27;100913.06;5075165;28;20078;-41
2021/09/09 09:56:48;;;;;;;39.50;20.90;;;;;;;26.06;53.89;100908.56;5074604;28;20113;-41
2021/09/09 09:59:14;;;;;;;32.10;20.13;;;;;;;25.63;55.68;100913.69;5074097;28;20468;-40
2021/09/09 10:01:40;;;;;;;28.77;19.23;;;;;;;25.13;56.81;100915.44;5075017;28;20021;-40
2021/09/09 10:04:10;;;;;;;38.70;18.88;;;;;;;25.35;56.56;100920.66;5074924;28;20395;-41
2021/09/09 10:06:36;;;;;;;29.02;16.77;;;;;;;25.53;56.86;100911.78;5075099;28;20048;-42
2021/09/09 10:09:04;;;;;;;31.05;16.08;;;;;;;25.60;56.71;100911.50;5074520;28;20450;-41
2021/09/09 10:11:29;;;;;;;28.23;15.43;;;;;;;25.89;55.19;100908.94;5075743;28;20028;-40
2021/09/09 10:13:56;;;;;;;25.77;15.57;;;;;;;26.09;55.10;100907.16;5074514;28;20424;-42
2021/09/09 10:16:22;;;;;;;29.23;14.93;;;;;;;26.30;54.97;100905.91;5056316;28;20028;-42
2021/09/09 10:18:48;;;;;;;24.95;14.63;;;;;;;26.36;54.08;100907.56;5056176;28;20041;-43
2021/09/09 10:21:38;;;;;;;35.00;16.02;;;;;;;26.10;55.66;100909.66;5056960;28;20384;-42
2021/09/09 10:24:08;;;;;;;30.67;16.98;;;;;;;25.99;56.13;100914.41;5070489;28;20070;-40
2021/09/09 10:26:33;;;;;;;29.35;17.23;;;;;;;26.00;55.44;100916.03;5074597;28;20090;-41
2021/09/09 10:28:59;;;;;;;31.15;17.75;;;;;;;25.78;56.63;100912.81;5054269;28;20048;-39
2021/09/09 10:31:37;;;;;;;34.45;17.70;;;;;;;25.74;58.15;100906.19;5072975;28;20036;-40
2021/09/09 10:34:06;;;;;;;37.53;21.52;;;;;;;25.53;57.92;100914.53;5072300;28;20141;-42
2021/09/09 10:36:43;;;;;;;35.78;21.58;;;;;;;25.54;58.35;100913.44;5073420;28;20029;-40
2021/09/09 10:39:18;;;;;;;40.70;21.45;;;;;;;25.19;57.39;100917.09;5074512;28;20021;-41
2021/09/09 10:41:43;;;;;;;36.17;19.20;;;;;;;24.84;57.53;100916.00;5074453;28;20033;-41
2021/09/09 10:44:09;;;;;;;33.28;18.35;;;;;;;25.04;57.34;100915.19;5056560;28;20522;-40
2021/09/09 10:46:40;;;;;;;31.42;18.60;;;;;;;25.35;55.85;100921.47;5074019;28;20052;-41
2021/09/09 10:49:08;;;;;;;32.95;17.40;;;;;;;25.52;55.86;100923.09;5055933;28;20459;-41
2021/09/09 10:51:34;;;;;;;28.27;16.67;;;;;;;25.79;55.80;100917.22;5055714;28;20020;-41
2021/09/09 10:54:00;;;;;;;28.10;16.08;;;;;;;25.93;55.55;100926.53;5073921;28;20102;-41
2021/09/09 10:56:28;;;;;;;26.58;14.85;;;;;;;26.17;54.36;100925.88;5073738;28;20035;-40
2021/09/09 10:59:13;;;;;;;38.65;20.42;;;;;;;25.86;54.21;100917.75;5074044;28;20036;-41
2021/09/09 11:01:44;;;;;;;30.08;17.35;;;;;;;25.91;54.09;100927.94;5072881;28;20020;-40
2021/09/09 11:04:31;;;;;;;28.08;14.23;;;;;;;25.98;54.08;100926.50;5056413;28;20047;-41
2021/09/09 11:06:57;;;;;;;;;;;;;;;25.97;53.12;100930.41;5074126;28;20483;-40
2021/09/09 11:09:23;;;;;;;24.52;14.15;;;;;;;26.39;51.86;100926.28;5073175;28;19999;-40
2021/09/09 11:12:00;;;;;;;22.40;13.52;;;;;;;26.95;49.62;100927.00;5073107;28;20028;-41
2021/09/09 11:14:26;;;;;;;20.25;13.88;;;;;;;26.83;49.60;100933.75;5073307;28;20082;-43
2021/09/09 11:16:51;;;;;;;28.02;12.63;;;;;;;26.85;49.53;100919.63;5073577;28;20032;-41
2021/09/09 11:19:22;;;;;;;23.92;10.90;;;;;;;27.19;50.24;100921.56;5073534;28;20108;-40
2021/09/09 11:21:48;;;;;;;21.10;12.57;;;;;;;27.14;49.31;100927.91;5073464;28;20448;-41
2021/09/09 11:24:15;;;;;;;22.55;12.65;;;;;;;27.22;49.60;100932.84;5073050;28;20123;-40
2021/09/09 11:26:43;;;;;;;23.15;11.93;;;;;;;27.06;49.46;100932.13;5073278;28;20089;-41
2021/09/09 11:29:08;;;;;;;23.88;11.20;;;;;;;27.00;50.87;100933.31;5073083;28;20495;-41
2021/09/09 11:31:43;;;;;;;24.63;12.20;;;;;;;27.52;48.81;100939.19;5072933;28;20024;-41
2021/09/09 11:34:09;;;;;;;21.65;10.88;;;;;;;28.08;47.90;100941.28;5072640;28;20464;-40
2021/09/09 11:36:36;;;;;;;16.70;11.18;;;;;;;28.39;47.41;100946.41;5073326;28;20065;-41
2021/09/09 11:39:04;;;;;;;18.13;9.32;;;;;;;28.58;47.25;100938.94;5072943;28;20460;-41
2021/09/09 11:41:30;;;;;;;19.00;8.90;;;;;;;28.68;47.57;100946.25;5072897;28;20037;-41
2021/09/09 11:43:57;;;;;;;13.57;8.43;;;;;;;29.48;44.98;100945.16;5055284;28;20418;-41
2021/09/09 11:46:29;;;;;;;14.60;9.23;;;;;;;29.45;45.34;100945.75;5073317;28;20104;-41
2021/09/09 11:49:01;;;;;;;18.77;9.50;;;;;;;28.79;46.48;100949.69;5072973;28;20024;-41
2021/09/09 11:51:36;;;;;;;17.42;9.82;;;;;;;28.01;48.63;100951.88;5054702;28;20025;-41
2021/09/09 11:54:03;;;;;;;12.20;8.27;;;;;;;28.30;48.90;100946.22;5071640;28;20427;-41
2021/09/09 11:56:28;;;;;;;40.50;11.57;;;;;;;28.66;47.68;100949.31;5072755;28;20016;-42
2021/09/09 11:58:54;;;;;;;17.00;12.10;;;;;;;28.37;47.95;100951.41;5072874;28;20065;-41
2021/09/09 12:01:20;;;;;;;18.98;12.10;;;;;;;27.85;49.05;100953.19;5054874;28;20021;-42
2021/09/09 12:03:45;;;;;;;16.45;10.13;;;;;;;27.47;51.14;100953.06;5071852;28;20081;-41
2021/09/09 12:06:19;;;;;;;89.00;16.98;;;;;;;27.75;50.78;100954.97;5054658;28;20132;-41
2021/09/09 12:08:45;;;;;;;15.77;10.20;;;;;;;28.05;50.22;100952.94;5072024;28;20040;-41
2021/09/09 12:11:12;;;;;;;20.73;10.80;;;;;;;28.36;50.37;100955.31;5070948;28;20032;-41